Time;durP1;ratioP1;P1;durP2;ratioP2;P2;SDS_P1;SDS_P2;PMS_P1;PMS_P2;Temp;Humidity;BMP_temperature;BMP_pressure;BME280_temperature;BME280_humidity;BME280_pressure;Samples;Min_cycle;Max_cycle;Signal;HPM_P1;HPM_P2
2023/05/05 00:02:19;;;;;;;;;;;;;;;17.27;69.10;101407.16;5090071;28;20316;-37
2023/05/05 00:04:44;;;;;;;8.20;4.60;;;;;;;17.19;71.45;101416.69;5089628;28;19912;-37
2023/05/05 00:07:10;;;;;;;;;;;;;;;17.23;68.96;101420.56;5090634;28;20286;-37
2023/05/05 00:09:35;;;;;;;7.50;4.87;;;;;;;17.16;72.20;101409.00;5090147;28;19998;-37
2023/05/05 00:12:00;;;;;;;;;;;;;;;17.20;69.71;101420.25;5082006;28;20287;-36
2023/05/05 00:14:26;;;;;;;6.78;4.90;;;;;;;17.14;74.54;101421.31;5076802;28;19913;-37
2023/05/05 00:16:51;;;;;;;;;;;;;;;17.18;71.54;101422.44;5076661;28;20086;-36
2023/05/05 00:19:16;;;;;;;7.22;5.28;;;;;;;17.03;75.47;101408.63;5076327;28;20245;-36
2023/05/05 00:21:41;;;;;;;;;;;;;;;17.15;75.87;101423.75;5077215;28;20467;-37
2023/05/05 00:24:09;;;;;;;7.40;5.70;;;;;;;17.07;78.88;101429.69;5075848;28;19916;-36
2023/05/05 00:26:34;;;;;;;5.72;4.93;;;;;;;17.05;79.65;101429.13;5076801;28;20263;-37
2023/05/05 00:29:00;;;;;;;;;;;;;;;17.10;75.63;101426.44;5076645;28;20029;-37
2023/05/05 00:31:25;;;;;;;6.80;5.97;;;;;;;17.06;79.71;101425.31;5075992;28;19909;-37
2023/05/05 00:33:50;;;;;;;;;;;;;;;17.07;77.53;101432.44;5076061;28;20086;-37
2023/05/05 00:36:16;;;;;;;8.07;5.95;;;;;;;16.94;80.48;101427.41;5076470;28;19909;-36
2023/05/05 00:38:41;;;;;;;;;;;;;;;16.99;77.65;101430.19;5076251;28;20085;-37
2023/05/05 00:41:07;;;;;;;6.47;5.88;;;;;;;16.90;81.69;101424.38;5076004;28;19965;-37
2023/05/05 00:43:32;;;;;;;;;;;;;;;16.93;77.85;101431.19;5076457;28;20419;-36
2023/05/05 00:46:08;;;;;;;7.20;5.70;;;;;;;16.80;82.10;101415.25;5075815;28;20276;-36
2023/05/05 00:48:33;;;;;;;7.32;6.43;;;;;;;16.81;83.19;101422.34;5075699;28;20350;-37
2023/05/05 00:50:58;;;;;;;;;;;;;;;16.86;78.96;101419.69;5075148;28;20441;-37
2023/05/05 00:53:25;;;;;;;8.50;6.65;;;;;;;16.71;84.15;101425.78;5076364;28;20400;-36
2023/05/05 00:55:52;;;;;;;7.97;7.18;;;;;;;16.70;84.43;101424.97;5076345;28;20354;-36
2023/05/05 00:58:17;;;;;;;9.15;7.00;;;;;;;16.65;85.15;101435.84;5075425;28;20376;-36
2023/05/05 01:00:43;;;;;;;;;;;;;;;16.70;80.70;101438.63;5076817;28;20050;-36
2023/05/05 01:03:09;;;;;;;8.20;7.40;;;;;;;16.62;84.84;101435.50;5075331;28;19918;-36
2023/05/05 01:05:58;;;;;;;;;;;;;;;16.66;81.10;101436.66;5076636;28;20442;-37
2023/05/05 01:08:39;;;;;;;6.70;6.05;;;;;;;16.56;84.34;101431.91;5075572;28;19912;-37
2023/05/05 01:11:13;;;;;;;7.40;6.70;;;;;;;16.52;84.48;101433.50;5075535;28;20028;-36
2023/05/05 01:13:46;;;;;;;8.00;6.38;;;;;;;16.43;83.94;101429.56;5075470;28;20036;-36
2023/05/05 01:16:22;;;;;;;6.53;5.72;;;;;;;16.47;84.49;101444.38;5075172;28;20358;-36
2023/05/05 01:19:25;;;;;;;6.15;5.55;;;;;;;16.48;83.48;101446.81;5075393;28;20043;-36
2023/05/05 01:21:55;;;;;;;7.50;6.70;;;;;;;16.42;85.16;101450.59;5074951;28;20072;-37
2023/05/05 01:24:50;;;;;;;7.35;6.63;;;;;;;16.36;85.23;101448.06;5074796;28;20115;-36
2023/05/05 01:27:38;;;;;;;7.03;6.32;;;;;;;16.34;84.58;101456.47;5074934;28;20025;-36
2023/05/05 01:30:27;;;;;;;7.35;5.90;;;;;;;16.27;84.81;101455.03;5071605;28;20070;-37
2023/05/05 01:32:59;;;;;;;5.28;4.78;;;;;;;16.16;83.94;101443.19;5075608;28;20032;-36
2023/05/05 01:35:30;;;;;;;6.75;5.20;;;;;;;16.20;84.25;101442.44;5074997;28;20066;-39
2023/05/05 01:38:08;;;;;;;5.47;4.43;;;;;;;16.19;83.46;101434.47;5074683;28;20028;-37
2023/05/05 01:40:39;;;;;;;4.47;3.97;;;;;;;16.17;83.88;101428.47;5075380;28;20024;-37
2023/05/05 01:43:07;;;;;;;7.32;4.65;;;;;;;16.05;83.99;101419.56;5074855;28;20047;-43
2023/05/05 01:45:36;;;;;;;5.68;4.38;;;;;;;16.12;83.59;101422.94;5075067;28;20032;-37
2023/05/05 01:48:05;;;;;;;4.30;3.75;;;;;;;16.03;82.21;101421.72;5074964;28;20035;-37
2023/05/05 01:50:31;;;;;;;3.80;3.40;;;;;;;16.08;81.77;101441.72;5074726;28;20043;-37
2023/05/05 01:52:57;;;;;;;;;;;;;;;16.15;80.35;101447.81;5074787;28;20025;-37
2023/05/05 01:55:25;;;;;;;3.67;3.28;;;;;;;16.10;81.55;101455.91;5074830;28;19908;-37
2023/05/05 01:57:52;;;;;;;3.30;3.00;;;;;;;16.02;81.45;101452.81;5074229;28;20067;-37
2023/05/05 02:00:18;;;;;;;3.38;3.08;;;;;;;15.90;82.98;101445.56;5074346;28;20156;-37
2023/05/05 02:02:47;;;;;;;;;;;;;;;16.00;80.04;101431.22;5074874;28;20111;-37
2023/05/05 02:05:15;;;;;;;3.78;3.13;;;;;;;15.80;81.87;101439.97;5074118;28;19915;-37
2023/05/05 02:07:41;;;;;;;2.90;2.60;;;;;;;15.83;82.31;101439.47;5073830;28;20035;-37
2023/05/05 02:10:06;;;;;;;;;;;;;;;15.90;79.84;101442.81;5074246;28;20036;-37
2023/05/05 02:12:34;;;;;;;4.00;2.50;;;;;;;15.80;81.79;101450.03;5074003;28;19908;-37
2023/05/05 02:15:01;;;;;;;3.55;2.75;;;;;;;15.68;82.67;101453.72;5074266;28;20036;-37
2023/05/05 02:17:28;;;;;;;2.90;2.45;;;;;;;15.69;82.38;101444.44;5074432;28;20033;-37
2023/05/05 02:19:55;;;;;;;3.22;2.58;;;;;;;15.52;82.42;101438.19;5074116;28;20385;-37
2023/05/05 02:22:20;;;;;;;7.70;3.67;;;;;;;15.46;83.11;101444.59;5074111;28;20024;-37
2023/05/05 02:24:46;;;;;;;3.05;2.65;;;;;;;15.48;83.27;101445.19;5073978;28;20033;-37
2023/05/05 02:27:14;;;;;;;;;;;;;;;15.54;80.47;101446.91;5074811;28;20036;-37
2023/05/05 02:30:11;;;;;;;3.05;2.53;;;;;;;15.37;83.33;101460.56;5074107;28;19912;-37
2023/05/05 02:32:38;;;;;;;2.78;2.38;;;;;;;15.34;83.85;101465.69;5074066;28;20029;-37
2023/05/05 02:35:11;;;;;;;4.10;2.47;;;;;;;15.22;84.67;101465.75;5073514;28;20079;-37
2023/05/05 02:37:38;;;;;;;5.03;2.65;;;;;;;15.27;84.30;101467.72;5074292;28;20044;-37
2023/05/05 02:40:07;;;;;;;3.88;2.28;;;;;;;15.09;85.09;101463.34;5073880;28;20051;-37
2023/05/05 02:42:37;;;;;;;2.65;2.13;;;;;;;15.02;85.25;101462.66;5074126;28;20025;-37
2023/05/05 02:45:13;;;;;;;2.58;2.38;;;;;;;15.08;84.43;101467.13;5073679;28;20037;-37
2023/05/05 02:47:38;;;;;;;2.83;2.20;;;;;;;15.01;84.71;101464.56;5073625;28;20025;-37
2023/05/05 02:50:04;;;;;;;;;;;;;;;15.13;82.55;101472.69;5074570;28;20029;-37
2023/05/05 02:52:30;;;;;;;3.15;1.90;;;;;;;14.86;85.12;101472.47;5073536;28;19978;-37
2023/05/05 02:54:56;;;;;;;4.53;1.90;;;;;;;14.95;84.86;101492.78;5074135;28;20052;-37
2023/05/05 02:57:26;;;;;;;;;;;;;;;15.01;82.38;101489.09;5074778;28;20066;-37
2023/05/05 03:00:18;;;;;;;2.38;1.70;;;;;;;14.94;83.78;101488.41;5073049;28;19916;-37
2023/05/05 03:02:49;;;;;;;2.13;1.33;;;;;;;14.77;86.29;101482.09;5073712;28;20036;-37
2023/05/05 03:05:27;;;;;;;2.97;1.50;;;;;;;14.77;86.11;101484.81;5073747;28;20024;-37
2023/05/05 03:08:03;;;;;;;3.40;1.30;;;;;;;14.71;86.26;101478.44;5073087;28;20029;-37
2023/05/05 03:10:33;;;;;;;1.58;1.35;;;;;;;14.49;87.45;101467.38;5074215;28;20027;-37
2023/05/05 03:13:01;;;;;;;2.13;1.50;;;;;;;14.37;87.84;101466.59;5073419;28;20032;-37
2023/05/05 03:15:33;;;;;;;2.28;1.70;;;;;;;14.44;88.27;101480.88;5073343;28;20020;-37
2023/05/05 03:18:01;;;;;;;3.47;1.33;;;;;;;14.29;89.17;101477.84;5073311;28;20441;-37
2023/05/05 03:20:27;;;;;;;3.03;1.55;;;;;;;14.24;89.24;101484.00;5073540;28;20090;-37
2023/05/05 03:22:53;;;;;;;2.30;1.67;;;;;;;14.10;90.51;101483.44;5072893;28;20446;-37
2023/05/05 03:25:19;;;;;;;;;;;;;;;14.24;86.70;101486.72;5073382;28;20052;-37
2023/05/05 03:27:44;;;;;;;2.88;1.63;;;;;;;14.03;91.49;101490.88;5073160;28;19959;-37
2023/05/05 03:30:10;;;;;;;2.73;1.43;;;;;;;14.01;91.29;101497.66;5073242;28;20063;-37
2023/05/05 03:32:36;;;;;;;2.45;1.33;;;;;;;14.06;91.50;101495.03;5073042;28;20271;-37
2023/05/05 03:35:01;;;;;;;;;;;;;;;14.14;87.90;101498.19;5074116;28;20036;-37
2023/05/05 03:37:26;;;;;;;3.30;1.60;;;;;;;13.94;92.56;101496.94;5072807;28;19919;-37
2023/05/05 03:39:52;;;;;;;;;;;;;;;14.05;88.84;101496.09;5074018;28;20059;-37
2023/05/05 03:42:17;;;;;;;2.42;1.65;;;;;;;13.92;91.45;101494.47;5072733;28;19916;-37
2023/05/05 03:44:42;;;;;;;3.13;1.80;;;;;;;13.83;92.71;101502.13;5073137;28;20029;-37
2023/05/05 03:47:08;;;;;;;4.35;2.72;;;;;;;13.81;93.51;101500.69;5074763;28;20028;-37
2023/05/05 03:49:33;;;;;;;;;;;;;;;13.87;89.50;101499.78;5077678;28;20480;-37
2023/05/05 03:51:58;;;;;;;3.60;2.30;;;;;;;13.77;93.46;101505.81;5076760;28;20360;-37
2023/05/05 03:54:24;;;;;;;;;;;;;;;13.85;89.63;101505.44;5077098;28;20033;-37
2023/05/05 03:56:49;;;;;;;4.35;2.45;;;;;;;13.64;94.42;101515.00;5076894;28;19923;-37
2023/05/05 03:59:14;;;;;;;4.10;3.13;;;;;;;13.61;94.48;101515.47;5077100;28;20036;-37
2023/05/05 04:01:40;;;;;;;4.55;3.15;;;;;;;13.59;96.15;101519.50;5076270;28;20381;-37
2023/05/05 04:04:08;;;;;;;;;;;;;;;13.71;92.54;101514.88;5077124;28;20107;-37
2023/05/05 04:06:34;;;;;;;3.80;3.20;;;;;;;13.46;96.48;101520.53;5077246;28;20329;-37
2023/05/05 04:08:59;;;;;;;;;;;;;;;13.60;93.04;101521.97;5077413;28;20067;-37
2023/05/05 04:11:25;;;;;;;5.32;3.35;;;;;;;13.45;97.39;101520.78;5076880;28;19912;-37
2023/05/05 04:13:50;;;;;;;;;;;;;;;13.56;93.14;101534.38;5076744;28;20367;-37
2023/05/05 04:16:15;;;;;;;5.00;4.00;;;;;;;13.33;97.39;101518.88;5076077;28;19912;-37
2023/05/05 04:18:41;;;;;;;5.50;3.80;;;;;;;13.30;98.13;101521.22;5077028;28;20803;-37
2023/05/05 04:21:06;;;;;;;;;;;;;;;13.51;94.24;101531.53;5076367;28;20108;-37
2023/05/05 04:23:31;;;;;;;4.87;4.10;;;;;;;13.34;98.61;101536.81;5076368;28;20380;-37
2023/05/05 04:25:57;;;;;;;5.03;4.03;;;;;;;13.36;99.13;101539.28;5076503;28;20262;-37
2023/05/05 04:28:22;;;;;;;4.57;4.00;;;;;;;13.26;98.76;101522.72;5076072;28;20354;-37
2023/05/05 04:30:48;;;;;;;4.63;4.22;;;;;;;13.29;100.00;101530.44;5076328;28;20058;-37
2023/05/05 04:33:13;;;;;;;5.78;5.15;;;;;;;13.34;99.94;101536.00;5076021;28;20404;-37
2023/05/05 04:35:38;;;;;;;8.15;4.70;;;;;;;13.40;99.46;101545.91;5075701;28;20048;-37
2023/05/05 04:38:04;;;;;;;;;;;;;;;13.54;96.13;101543.81;5076331;28;20031;-37
2023/05/05 04:40:29;;;;;;;5.23;4.73;;;;;;;13.53;99.35;101543.00;5075533;28;19920;-37
2023/05/05 04:42:54;;;;;;;6.53;5.50;;;;;;;13.53;100.00;101548.44;5076393;28;20271;-37
2023/05/05 04:45:20;;;;;;;5.93;5.32;;;;;;;13.61;99.67;101547.25;5076023;28;20032;-37
2023/05/05 04:47:45;;;;;;;;;;;;;;;13.70;96.44;101545.84;5076426;28;20024;-37
2023/05/05 04:50:11;;;;;;;5.88;5.28;;;;;;;13.62;99.45;101540.78;5075662;28;20319;-37
2023/05/05 04:52:36;;;;;;;7.07;5.50;;;;;;;13.60;100.00;101543.72;5075640;28;20028;-37
2023/05/05 04:55:02;;;;;;;6.20;5.60;;;;;;;13.54;100.00;101541.09;5075604;28;20063;-37
2023/05/05 04:57:28;;;;;;;6.20;5.40;;;;;;;13.60;100.00;101551.84;5075123;28;20035;-37
2023/05/05 04:59:53;;;;;;;;;;;;;;;13.69;97.04;101548.81;5075739;28;20053;-37
2023/05/05 05:02:19;;;;;;;6.60;5.23;;;;;;;13.46;99.60;101544.16;5076020;28;19920;-37
2023/05/05 05:04:44;;;;;;;5.80;5.30;;;;;;;13.40;100.00;101540.47;5074450;28;20305;-37
2023/05/05 05:07:10;;;;;;;6.97;5.35;;;;;;;13.38;100.00;101538.00;5076210;28;20107;-37
2023/05/05 05:09:35;;;;;;;;;;;;;;;13.59;98.04;101549.38;5075415;28;20031;-37
2023/05/05 05:12:01;;;;;;;6.53;5.13;;;;;;;13.58;100.00;101548.56;5074944;28;19935;-37
2023/05/05 05:14:27;;;;;;;;;;;;;;;13.73;97.59;101539.13;5075303;28;20056;-37
2023/05/05 05:16:53;;;;;;;6.45;5.50;;;;;;;13.64;100.00;101528.59;5075969;28;19959;-37
2023/05/05 05:19:18;;;;;;;6.40;5.80;;;;;;;13.67;100.00;101534.63;5075330;28;20376;-37
2023/05/05 05:21:43;;;;;;;6.93;5.53;;;;;;;13.70;100.00;101526.00;5074695;28;20056;-37
2023/05/05 05:24:10;;;;;;;;;;;;;;;13.87;97.08;101535.13;5075435;28;20033;-37
2023/05/05 05:26:36;;;;;;;6.20;5.60;;;;;;;13.88;98.84;101536.78;5074913;28;20262;-37
2023/05/05 05:29:01;;;;;;;;;;;;;;;14.01;96.51;101541.97;5075607;28;20043;-37
2023/05/05 05:31:26;;;;;;;5.83;5.27;;;;;;;14.00;98.21;101537.59;5075391;28;19912;-37
2023/05/05 05:33:51;;;;;;;6.37;5.77;;;;;;;14.08;97.95;101539.13;5074733;28;20328;-37
2023/05/05 05:36:17;;;;;;;6.07;5.57;;;;;;;14.18;96.70;101523.84;5074840;28;20258;-37
2023/05/05 05:38:42;;;;;;;7.10;6.05;;;;;;;14.35;96.85;101543.00;5074740;28;20277;-37
2023/05/05 05:41:07;;;;;;;6.85;5.70;;;;;;;14.44;92.73;101543.44;5074903;28;20393;-37
2023/05/05 05:43:33;;;;;;;6.03;5.47;;;;;;;14.47;96.36;101550.31;5075402;28;20438;-37
2023/05/05 05:45:58;;;;;;;6.78;6.07;;;;;;;14.56;95.26;101549.75;5075134;28;20031;-37
2023/05/05 05:48:27;;;;;;;;;;;;;;;14.74;94.03;101545.19;5075080;28;20436;-37
2023/05/05 05:50:53;;;;;;;6.93;5.82;;;;;;;14.66;92.98;101536.34;5074409;28;19915;-37
2023/05/05 05:53:18;;;;;;;;;;;;;;;14.91;92.30;101567.88;5075139;28;20032;-37
2023/05/05 05:55:45;;;;;;;8.57;5.85;;;;;;;14.88;93.28;101554.72;5074338;28;19915;-37
2023/05/05 05:58:10;;;;;;;7.28;6.28;;;;;;;15.08;93.22;101578.81;5074188;28;20114;-37
2023/05/05 06:00:36;;;;;;;;;;;;;;;15.22;91.64;101593.78;5074734;28;20139;-37
2023/05/05 06:03:01;;;;;;;6.93;6.27;;;;;;;15.03;93.08;101559.63;5074163;28;19923;-37
2023/05/05 06:05:26;;;;;;;7.00;6.30;;;;;;;15.16;92.95;101573.81;5074167;28;20271;-37
2023/05/05 06:07:51;;;;;;;;;;;;;;;15.41;91.40;101594.41;5074812;28;20031;-37
2023/05/05 06:10:17;;;;;;;6.83;6.13;;;;;;;15.42;91.28;101602.38;5073671;28;20280;-38
2023/05/05 06:12:45;;;;;;;;;;;;;;;15.58;91.30;101603.47;5074480;28;20460;-38
2023/05/05 06:15:11;;;;;;;6.75;6.15;;;;;;;15.57;92.13;101601.81;5074823;28;19912;-38
2023/05/05 06:17:36;;;;;;;;;;;;;;;15.80;91.52;101608.22;5074100;28;20381;-37
2023/05/05 06:20:01;;;;;;;7.87;7.07;;;;;;;15.78;92.63;101591.28;5074716;28;19912;-37
2023/05/05 06:22:26;;;;;;;;;;;;;;;15.99;91.04;101601.44;5074863;28;20082;-37
2023/05/05 06:24:52;;;;;;;7.80;6.27;;;;;;;15.99;91.70;101593.25;5074450;28;20312;-37
2023/05/05 06:27:17;;;;;;;;;;;;;;;16.25;90.97;101610.00;5075136;28;20267;-37
2023/05/05 06:29:42;;;;;;;9.33;7.53;;;;;;;16.26;92.00;101604.31;5073845;28;19908;-37
2023/05/05 06:32:08;;;;;;;8.85;7.63;;;;;;;16.33;91.32;101607.69;5073816;28;20327;-37
2023/05/05 06:34:33;;;;;;;;;;;;;;;16.49;90.80;101605.97;5074486;28;20369;-37
2023/05/05 06:36:58;;;;;;;9.25;7.60;;;;;;;16.43;91.59;101615.19;5073765;28;19908;-37
2023/05/05 06:39:23;;;;;;;;;;;;;;;16.56;92.18;101617.56;5074102;28;20028;-37
2023/05/05 06:41:49;;;;;;;9.35;7.45;;;;;;;16.50;92.19;101609.56;5073597;28;19916;-37
2023/05/05 06:44:14;;;;;;;;;;;;;;;16.62;91.25;101616.56;5074314;28;20048;-37
2023/05/05 06:46:39;;;;;;;9.47;6.50;;;;;;;16.62;89.92;101618.47;5073594;28;19912;-37
2023/05/05 06:49:05;;;;;;;;;;;;;;;16.77;89.27;101615.13;5073991;28;20270;-37
2023/05/05 06:51:30;;;;;;;9.50;6.97;;;;;;;16.66;90.04;101614.16;5073513;28;19915;-37
2023/05/05 06:53:55;;;;;;;;;;;;;;;16.77;88.72;101615.13;5073659;28;20274;-37
2023/05/05 06:56:21;;;;;;;9.48;6.10;;;;;;;16.68;88.00;101621.00;5074077;28;19998;-37
2023/05/05 06:58:46;;;;;;;;;;;;;;;16.79;88.27;101613.81;5073880;28;20107;-37
2023/05/05 07:01:12;;;;;;;8.30;7.07;;;;;;;16.68;88.05;101618.25;5073432;28;20314;-37
2023/05/05 07:03:37;;;;;;;;;;;;;;;16.82;88.08;101618.75;5073840;28;20112;-37
2023/05/05 07:06:03;;;;;;;9.23;6.28;;;;;;;16.65;86.71;101609.78;5073142;28;19951;-37
2023/05/05 07:08:28;;;;;;;;;;;;;;;16.79;87.25;101623.88;5074113;28;20025;-37
2023/05/05 07:10:53;;;;;;;6.60;5.67;;;;;;;16.61;87.03;101600.44;5073990;28;19959;-37
2023/05/05 07:13:18;;;;;;;;;;;;;;;16.89;87.00;101622.13;5073741;28;20300;-37
2023/05/05 07:15:45;;;;;;;6.75;6.05;;;;;;;16.92;87.73;101615.31;5073324;28;19920;-37
2023/05/05 07:18:14;;;;;;;7.05;5.75;;;;;;;17.02;85.45;101617.34;5072970;28;20039;-37
2023/05/05 07:20:39;;;;;;;7.85;6.03;;;;;;;17.07;85.05;101617.41;5073809;28;20165;-37
2023/05/05 07:23:04;;;;;;;;;;;;;;;17.28;85.67;101626.69;5077033;28;20119;-38
2023/05/05 07:25:30;;;;;;;7.45;5.15;;;;;;;17.22;83.82;101640.25;5078128;28;19909;-38
2023/05/05 07:27:55;;;;;;;;;;;;;;;17.34;84.43;101628.38;5077640;28;20472;-37
2023/05/05 07:30:21;;;;;;;7.88;5.53;;;;;;;17.25;84.42;101622.53;5077162;28;19916;-38
2023/05/05 07:32:46;;;;;;;;;;;;;;;17.49;84.19;101631.28;5077567;28;20029;-37
2023/05/05 07:35:12;;;;;;;7.30;6.13;;;;;;;17.40;83.41;101609.03;5077376;28;19914;-37
2023/05/05 07:37:37;;;;;;;;;;;;;;;17.72;82.83;101630.97;5077740;28;20028;-38
2023/05/05 07:40:02;;;;;;;6.37;5.00;;;;;;;17.85;79.63;101637.91;5077178;28;20307;-38
2023/05/05 07:42:28;;;;;;;6.60;4.93;;;;;;;18.01;78.39;101628.78;5076898;28;20493;-38
2023/05/05 07:44:54;;;;;;;;;;;;;;;18.25;80.04;101631.97;5077385;28;20104;-37
2023/05/05 07:47:19;;;;;;;5.75;4.53;;;;;;;18.11;76.99;101628.03;5077123;28;19954;-38
2023/05/05 07:49:45;;;;;;;5.22;4.07;;;;;;;18.13;77.03;101625.03;5076458;28;20025;-37
2023/05/05 07:52:10;;;;;;;;;;;;;;;18.29;78.22;101618.56;5077195;28;20074;-38
2023/05/05 07:54:35;;;;;;;5.20;4.30;;;;;;;18.30;75.78;101609.28;5076668;28;19916;-37
2023/05/05 07:57:01;;;;;;;;;;;;;;;18.53;77.37;101617.06;5077695;28;20115;-37
2023/05/05 07:59:26;;;;;;;5.50;4.27;;;;;;;18.25;75.91;101621.00;5076673;28;19955;-37
2023/05/05 08:01:51;;;;;;;;;;;;;;;18.36;77.08;101623.81;5077994;28;20295;-38
2023/05/05 08:04:17;;;;;;;4.60;4.13;;;;;;;18.40;76.70;101609.34;5077051;28;19917;-38
2023/05/05 08:06:42;;;;;;;;;;;;;;;18.66;77.53;101607.56;5077236;28;20279;-38
2023/05/05 08:09:09;;;;;;;5.50;3.70;;;;;;;18.63;75.24;101597.13;5076445;28;20307;-37
2023/05/05 08:11:34;;;;;;;4.90;3.97;;;;;;;18.45;73.54;101600.31;5076071;28;20028;-38
2023/05/05 08:13:59;;;;;;;;;;;;;;;18.56;74.65;101607.50;5077289;28;20024;-38
2023/05/05 08:16:25;;;;;;;4.45;4.03;;;;;;;18.43;74.11;101607.97;5076287;28;19912;-38
2023/05/05 08:18:50;;;;;;;;;;;;;;;18.61;76.41;101620.41;5077025;28;20143;-38
2023/05/05 08:21:17;;;;;;;4.30;3.55;;;;;;;18.77;74.56;101622.97;5076422;28;20272;-38
2023/05/05 08:23:42;;;;;;;4.70;3.90;;;;;;;19.01;74.83;101619.78;5076697;28;20029;-38
2023/05/05 08:26:10;;;;;;;;;;;;;;;19.29;75.18;101626.72;5077175;28;20032;-38
2023/05/05 08:28:36;;;;;;;6.82;4.28;;;;;;;19.38;73.36;101627.03;5107946;28;19908;-38
2023/05/05 08:31:03;;;;;;;6.68;4.25;;;;;;;19.43;72.49;101629.78;5076897;28;20040;-38
2023/05/05 08:33:28;;;;;;;5.30;4.53;;;;;;;19.37;72.11;101608.91;5075545;28;20060;-38
2023/05/05 08:35:53;;;;;;;;;;;;;;;19.38;72.45;101616.06;5076705;28;20025;-38
2023/05/05 08:38:18;;;;;;;6.93;4.97;;;;;;;19.34;72.31;101617.69;5076414;28;19931;-38
2023/05/05 08:40:44;;;;;;;6.72;4.30;;;;;;;19.30;73.67;101628.38;5076414;28;20279;-38
2023/05/05 08:43:10;;;;;;;6.72;4.10;;;;;;;19.15;72.38;101626.41;5075862;28;20024;-38
2023/05/05 08:45:37;;;;;;;5.80;4.00;;;;;;;19.21;72.27;101630.81;5076348;28;20032;-38
2023/05/05 08:48:03;;;;;;;4.10;3.70;;;;;;;19.13;71.47;101633.25;5075984;28;20033;-38
2023/05/05 08:50:30;;;;;;;6.32;3.40;;;;;;;19.04;72.29;101622.00;5075714;28;20495;-37
2023/05/05 08:53:15;;;;;;;6.47;3.65;;;;;;;18.92;72.27;101632.34;5075961;28;20044;-38
2023/05/05 08:55:51;;;;;;;5.57;3.08;;;;;;;18.86;72.91;101627.94;5075878;28;20062;-38
2023/05/05 08:58:21;;;;;;;3.33;2.70;;;;;;;18.74;71.88;101619.97;5076122;28;20028;-38
2023/05/05 09:00:47;;;;;;;4.20;2.67;;;;;;;18.84;72.80;101635.59;5075931;28;20135;-37
2023/05/05 09:03:13;;;;;;;;;;;;;;;18.95;73.22;101632.66;5076416;28;20108;-37
2023/05/05 09:05:38;;;;;;;4.47;3.03;;;;;;;18.91;72.78;101630.72;5075484;28;20371;-37
2023/05/05 09:08:04;;;;;;;;;;;;;;;19.03;73.13;101625.81;5075842;28;20039;-37
2023/05/05 09:10:31;;;;;;;3.50;2.58;;;;;;;18.95;71.96;101623.59;5075308;28;19916;-37
2023/05/05 09:12:56;;;;;;;4.40;3.00;;;;;;;18.87;72.93;101613.97;5075173;28;20025;-37
2023/05/05 09:15:21;;;;;;;;;;;;;;;19.11;73.02;101625.28;5076257;28;20070;-37
2023/05/05 09:17:47;;;;;;;5.78;2.92;;;;;;;19.06;73.06;101624.47;5074864;28;19939;-37
2023/05/05 09:20:13;;;;;;;3.90;2.42;;;;;;;19.09;72.07;101632.97;5075092;28;20025;-37
2023/05/05 09:22:40;;;;;;;3.75;2.60;;;;;;;19.25;73.20;101636.59;5075339;28;20028;-37
2023/05/05 09:25:08;;;;;;;9.30;2.05;;;;;;;19.22;70.81;101632.44;5075100;28;20024;-37
2023/05/05 09:27:39;;;;;;;4.28;2.15;;;;;;;19.26;70.29;101647.28;5074985;28;20075;-37
2023/05/05 09:30:05;;;;;;;3.35;2.00;;;;;;;19.29;71.00;101643.19;5075151;28;20393;-37
2023/05/05 09:32:42;;;;;;;2.95;1.58;;;;;;;19.29;71.15;101646.75;5074827;28;20077;-37
2023/05/05 09:35:08;;;;;;;5.07;1.90;;;;;;;19.23;70.09;101647.81;5074820;28;20028;-37
2023/05/05 09:37:33;;;;;;;;;;;;;;;19.39;70.44;101647.88;5075127;28;20021;-37
2023/05/05 09:40:02;;;;;;;3.00;1.50;;;;;;;19.17;70.88;101648.88;5074910;28;19913;-37
2023/05/05 09:42:27;;;;;;;2.15;1.05;;;;;;;19.02;70.96;101635.13;5074675;28;20131;-37
2023/05/05 09:44:53;;;;;;;;;;;;;;;19.22;71.36;101643.41;5074854;28;20103;-36
2023/05/05 09:47:19;;;;;;;2.17;1.20;;;;;;;19.11;68.32;101633.53;5075348;28;19909;-37
2023/05/05 09:49:44;;;;;;;3.00;1.10;;;;;;;19.13;69.53;101631.34;5074433;28;20025;-37
2023/05/05 09:52:14;;;;;;;3.88;1.63;;;;;;;19.10;69.91;101631.06;5074211;28;20032;-37
2023/05/05 09:54:40;;;;;;;4.32;1.38;;;;;;;19.11;68.88;101630.78;5074087;28;20028;-37
2023/05/05 09:57:06;;;;;;;2.53;1.10;;;;;;;19.13;68.58;101628.63;5074395;28;20028;-37
2023/05/05 09:59:31;;;;;;;;;;;;;;;19.27;68.75;101629.72;5074810;28;20484;-37
2023/05/05 10:02:11;;;;;;;1.67;0.70;;;;;;;19.15;67.55;101631.91;5074080;28;19920;-37
2023/05/05 10:04:37;;;;;;;2.08;0.95;;;;;;;19.09;67.36;101629.41;5074261;28;20255;-37
2023/05/05 10:07:02;;;;;;;2.40;1.10;;;;;;;19.12;69.84;101631.59;5074234;28;20024;-38
2023/05/05 10:09:28;;;;;;;2.33;1.42;;;;;;;19.17;68.78;101624.22;5074076;28;20024;-37
2023/05/05 10:11:54;;;;;;;;;;;;;;;19.29;69.43;101626.72;5074778;28;20488;-37
2023/05/05 10:14:22;;;;;;;2.65;1.20;;;;;;;19.10;70.87;101615.44;5074293;28;19942;-37
2023/05/05 10:16:53;;;;;;;4.70;1.50;;;;;;;19.09;70.95;101632.16;5074893;28;20028;-37
2023/05/05 10:19:23;;;;;;;2.95;1.50;;;;;;;18.89;72.66;101624.69;5074491;28;20021;-37
2023/05/05 10:21:58;;;;;;;3.90;1.60;;;;;;;18.83;73.46;101614.75;5074735;28;20028;-37
2023/05/05 10:24:41;;;;;;;4.75;1.80;;;;;;;18.81;75.33;101623.25;5074189;28;20115;-37
2023/05/05 10:27:14;;;;;;;3.88;2.03;;;;;;;18.56;80.53;101623.94;5073930;28;20491;-37
2023/05/05 10:30:03;;;;;;;5.38;2.40;;;;;;;18.47;81.14;101640.03;5074692;28;20107;-37
2023/05/05 10:32:28;;;;;;;4.63;2.70;;;;;;;18.26;83.17;101638.25;5073818;28;20465;-37
2023/05/05 10:34:58;;;;;;;;;;;;;;;18.40;79.36;101644.13;5074177;28;20024;-37
2023/05/05 10:37:25;;;;;;;4.68;2.78;;;;;;;18.12;87.08;101639.81;5074366;28;19951;-37
2023/05/05 10:39:52;;;;;;;4.45;2.65;;;;;;;17.88;88.68;101647.53;5073309;28;20029;-37
2023/05/05 10:42:19;;;;;;;6.25;2.95;;;;;;;17.63;91.01;101626.22;5073427;28;20074;-37
2023/05/05 10:44:44;;;;;;;5.40;2.67;;;;;;;17.68;91.54;101648.16;5073615;28;20064;-37
2023/05/05 10:47:10;;;;;;;;;;;;;;;17.79;87.82;101657.28;5074946;28;20064;-36
2023/05/05 10:50:06;;;;;;;4.75;2.63;;;;;;;17.55;91.70;101656.75;5073621;28;19945;-37
2023/05/05 10:52:46;;;;;;;3.78;2.95;;;;;;;17.33;98.40;101662.28;5073079;28;20040;-37
2023/05/05 10:55:18;;;;;;;4.03;2.97;;;;;;;17.18;99.14;101658.28;5073673;28;20028;-37
2023/05/05 10:57:45;;;;;;;5.78;2.97;;;;;;;17.17;100.00;101667.53;5073829;28;20086;-37
2023/05/05 11:00:39;;;;;;;3.75;2.88;;;;;;;17.16;100.00;101665.06;5073715;28;20040;-36
2023/05/05 11:03:16;;;;;;;6.60;3.20;;;;;;;17.06;100.00;101667.69;5073327;28;20044;-37
2023/05/05 11:06:03;;;;;;;4.28;3.15;;;;;;;16.99;100.00;101665.16;5073410;28;20039;-37
2023/05/05 11:08:37;;;;;;;3.88;2.85;;;;;;;16.85;100.00;101666.59;5073723;28;20043;-37
2023/05/05 11:11:04;;;;;;;4.22;1.90;;;;;;;16.59;100.00;101674.41;5073655;28;20457;-37
2023/05/05 11:13:30;;;;;;;4.97;1.45;;;;;;;16.27;100.00;101678.81;5074218;28;20024;-37
2023/05/05 11:15:56;;;;;;;;;;;;;;;16.30;98.87;101673.69;5074062;28;20031;-37
2023/05/05 11:18:38;;;;;;;1.92;0.90;;;;;;;15.99;100.00;101683.25;5073304;28;19958;-37
2023/05/05 11:21:07;;;;;;;2.63;0.75;;;;;;;15.79;100.00;101685.63;5073527;28;20056;-37
2023/05/05 11:23:33;;;;;;;2.60;0.90;;;;;;;15.67;100.00;101688.44;5073518;28;20115;-37
2023/05/05 11:25:58;;;;;;;;;;;;;;;15.74;100.00;101682.81;5073763;28;20418;-37
2023/05/05 11:28:28;;;;;;;4.25;0.70;;;;;;;15.44;100.00;101681.97;5073124;28;19931;-37
2023/05/05 11:30:53;;;;;;;1.52;0.55;;;;;;;15.35;100.00;101672.53;5073426;28;20385;-37
2023/05/05 11:33:25;;;;;;;;;;;;;;;15.53;100.00;101685.16;5073261;28;20040;-37
2023/05/05 11:35:58;;;;;;;1.75;0.75;;;;;;;15.23;100.00;101690.81;5073665;28;19909;-36
2023/05/05 11:39:01;;;;;;;1.88;0.80;;;;;;;15.11;100.00;101688.13;5073053;28;20073;-37
2023/05/05 11:41:32;;;;;;;2.15;0.80;;;;;;;15.03;100.00;101684.94;5073066;28;20028;-48
2023/05/05 11:44:10;;;;;;;2.45;1.17;;;;;;;14.98;100.00;101684.81;5073697;28;20033;-37
2023/05/05 11:46:35;;;;;;;2.03;0.95;;;;;;;14.98;100.00;101693.00;5073122;28;20486;-37